Wylie's Hourly Summary for Wednesday, March 15, 2017
Hour Temp
(f)
RH
(%)
Solar Rad.
(MJ/m2)
Rainfall
(in)
Wind
(mph)
3/15/2017 12:00 AM 52 51 0 0 5.03
3/15/2017 1:00 AM 50 50 0 0 9.12
3/15/2017 2:00 AM 47 55 0 0 11.26
3/15/2017 3:00 AM 46 57 0 0 9.21
3/15/2017 4:00 AM 46 58 0 0 9.74
3/15/2017 5:00 AM 45 60 0 0 8.4
3/15/2017 6:00 AM 45 63 0 0 5.76
3/15/2017 7:00 AM 44 65 0 0 5.76
3/15/2017 8:00 AM 44 65 0.01 0 6.06
3/15/2017 9:00 AM 44 65 0.18 0 6.7
3/15/2017 10:00 AM 44 65 0.64 0 6.86
3/15/2017 11:00 AM 45 63 1.39 0 7.48
3/15/2017 12:00 PM 47 60 1.97 0 7.18
3/15/2017 1:00 PM 51 52 2.78 0 6
3/15/2017 2:00 PM 54 49 2.67 0 5.59
3/15/2017 3:00 PM 56 47 2.62 0 6.29
3/15/2017 4:00 PM 58 44 2.51 0 7.42
3/15/2017 5:00 PM 59 44 1.92 0 6.03
3/15/2017 6:00 PM 60 45 1.28 0 5.31
3/15/2017 7:00 PM 60 46 0.57 0 6.19
3/15/2017 8:00 PM 59 48 0.05 0 4.79
3/15/2017 9:00 PM 56 52 0 0 4.25
3/15/2017 10:00 PM 54 55 0 0 3.89
3/15/2017 11:00 PM 52 59 0 0 3.23
Data Summary 50 54 18.59 0.00 6.56